createdAt,value
2022-07-25T00:01:47.151Z,14.90
2022-07-25T00:04:14.539Z,15.32
2022-07-25T00:06:43.103Z,14.60
2022-07-25T00:09:10.257Z,17.13
2022-07-25T00:11:37.167Z,13.52
2022-07-25T00:14:05.158Z,10.93
2022-07-25T00:16:32.444Z,12.35
2022-07-25T00:18:59.519Z,11.82
2022-07-25T00:21:26.618Z,10.63
2022-07-25T00:23:53.305Z,17.60
2022-07-25T00:26:20.115Z,19.55
2022-07-25T00:28:46.784Z,17.60
2022-07-25T00:31:13.526Z,12.85
2022-07-25T00:33:40.449Z,16.50
2022-07-25T00:36:10.632Z,16.42
2022-07-25T00:38:37.447Z,15.63
2022-07-25T00:41:04.793Z,17.70
2022-07-25T00:43:31.769Z,14.82
2022-07-25T00:45:59.531Z,13.10
2022-07-25T00:48:28.000Z,16.70
2022-07-25T00:50:56.272Z,15.50
2022-07-25T00:53:22.965Z,14.30
2022-07-25T00:55:49.694Z,13.63
2022-07-25T00:58:16.694Z,15.07
2022-07-25T01:00:43.408Z,15.90
2022-07-25T01:03:10.445Z,14.20
2022-07-25T01:05:37.428Z,11.75
2022-07-25T01:08:04.793Z,16.10
2022-07-25T01:10:32.920Z,15.13
2022-07-25T01:12:59.733Z,15.30
2022-07-25T01:15:26.850Z,16.33
2022-07-25T01:17:53.571Z,13.77
2022-07-25T01:20:21.883Z,15.43
2022-07-25T01:22:48.687Z,13.77
2022-07-25T01:25:16.273Z,12.93
2022-07-25T01:27:43.831Z,17.15
2022-07-25T01:30:12.384Z,19.23
2022-07-25T01:32:39.225Z,18.05
2022-07-25T01:35:07.099Z,16.05
2022-07-25T01:37:34.219Z,12.70
2022-07-25T01:40:01.353Z,20.65
2022-07-25T01:42:28.542Z,11.75
2022-07-25T01:44:55.939Z,15.70
2022-07-25T01:47:22.659Z,14.05
2022-07-25T01:49:49.523Z,17.02
2022-07-25T01:52:16.363Z,13.90
2022-07-25T01:54:43.497Z,14.93
2022-07-25T01:57:10.667Z,16.63
2022-07-25T01:59:40.358Z,13.43
2022-07-25T02:02:08.249Z,14.80
2022-07-25T02:04:35.780Z,13.32
2022-07-25T02:07:02.746Z,11.60
2022-07-25T02:09:29.359Z,15.70
2022-07-25T02:11:56.337Z,14.80
2022-07-25T02:14:23.550Z,11.82
2022-07-25T02:16:50.435Z,13.20
2022-07-25T02:19:17.198Z,12.82
2022-07-25T02:21:44.070Z,17.75
2022-07-25T02:24:11.003Z,12.10
2022-07-25T02:26:37.673Z,13.00
2022-07-25T02:29:04.592Z,13.43
2022-07-25T02:31:31.292Z,19.92
2022-07-25T02:33:57.901Z,18.98
2022-07-25T02:36:24.643Z,13.77
2022-07-25T02:38:51.642Z,13.18
2022-07-25T02:41:18.291Z,14.13
2022-07-25T02:43:44.902Z,15.65
2022-07-25T02:46:11.602Z,12.43
2022-07-25T02:48:38.658Z,12.95
2022-07-25T02:51:05.524Z,19.08
2022-07-25T02:53:55.474Z,13.43
2022-07-25T02:56:18.759Z,12.10
2022-07-25T02:58:48.185Z,12.38
2022-07-25T03:01:15.324Z,20.08
2022-07-25T03:03:42.159Z,17.52
2022-07-25T03:06:08.935Z,13.75
2022-07-25T03:08:36.816Z,13.07
2022-07-25T03:11:03.652Z,13.57
2022-07-25T03:13:30.409Z,13.93
2022-07-25T03:15:57.066Z,13.88
2022-07-25T03:18:23.706Z,25.20
2022-07-25T03:20:50.309Z,16.63
2022-07-25T03:23:16.987Z,13.18
2022-07-25T03:25:43.685Z,14.77
2022-07-25T03:28:10.342Z,12.02
2022-07-25T03:30:36.997Z,12.93
2022-07-25T03:33:03.757Z,12.65
2022-07-25T03:35:30.356Z,16.60
2022-07-25T03:37:57.356Z,17.63
2022-07-25T03:40:23.985Z,15.43
2022-07-25T03:42:50.552Z,21.15
2022-07-25T03:45:17.947Z,16.42
2022-07-25T03:47:44.927Z,21.48
2022-07-25T03:50:11.962Z,19.17
2022-07-25T03:52:38.716Z,15.88
2022-07-25T03:55:10.465Z,14.30
2022-07-25T03:57:38.084Z,15.30
2022-07-25T04:00:07.479Z,17.42
2022-07-25T04:02:34.851Z,19.55
2022-07-25T04:05:01.754Z,15.68
2022-07-25T04:07:28.460Z,19.08
2022-07-25T04:09:55.213Z,18.23
2022-07-25T04:12:21.870Z,12.73
2022-07-25T04:14:48.474Z,14.85
2022-07-25T04:17:15.252Z,13.25
2022-07-25T04:19:41.969Z,12.38
2022-07-25T04:22:08.759Z,14.32
2022-07-25T04:24:35.441Z,19.73
2022-07-25T04:27:02.112Z,16.40
2022-07-25T04:29:29.684Z,14.40
2022-07-25T04:31:56.312Z,15.52
2022-07-25T04:34:23.078Z,14.18
2022-07-25T04:36:49.930Z,13.13
2022-07-25T04:39:16.488Z,17.98
2022-07-25T04:41:43.283Z,14.98
2022-07-25T04:44:09.984Z,24.98
2022-07-25T04:46:36.833Z,16.33
2022-07-25T04:49:03.517Z,13.20
2022-07-25T04:51:30.205Z,15.40
2022-07-25T04:53:56.804Z,18.27
2022-07-25T04:56:23.434Z,11.95
2022-07-25T04:58:50.053Z,19.02
2022-07-25T05:01:16.792Z,14.32
2022-07-25T05:03:49.893Z,16.05
2022-07-25T05:06:17.348Z,16.20
2022-07-25T05:08:44.032Z,16.67
2022-07-25T05:11:10.682Z,21.60
2022-07-25T05:13:37.286Z,17.92
2022-07-25T05:16:04.148Z,16.40
2022-07-25T05:18:31.059Z,12.93
2022-07-25T05:20:58.987Z,14.82
2022-07-25T05:23:25.656Z,16.90
2022-07-25T05:25:52.486Z,13.75
2022-07-25T05:28:19.180Z,14.50
2022-07-25T05:30:45.942Z,14.50
2022-07-25T05:33:12.659Z,16.77
2022-07-25T05:35:39.432Z,14.40
2022-07-25T05:38:06.075Z,14.32
2022-07-25T05:40:32.677Z,14.82
2022-07-25T05:43:03.013Z,16.65
2022-07-25T05:45:31.271Z,13.27
2022-07-25T05:47:57.903Z,18.15
2022-07-25T05:50:24.655Z,15.98
2022-07-25T05:52:51.313Z,16.13
2022-07-25T05:55:18.380Z,13.65
2022-07-25T05:57:45.278Z,15.85
2022-07-25T06:00:12.724Z,15.43
2022-07-25T06:02:39.601Z,15.63
2022-07-25T06:05:06.527Z,14.00
2022-07-25T06:07:33.210Z,16.25
2022-07-25T06:09:59.848Z,18.63
2022-07-25T06:12:26.568Z,24.33
2022-07-25T06:14:53.547Z,23.00
2022-07-25T06:17:20.934Z,13.73
2022-07-25T06:19:47.678Z,19.80
2022-07-25T06:22:14.400Z,16.63
2022-07-25T06:24:41.528Z,15.05
2022-07-25T06:27:08.923Z,14.32
2022-07-25T06:29:35.824Z,19.27
2022-07-25T06:32:02.939Z,19.38
2022-07-25T06:34:33.322Z,16.75
2022-07-25T06:36:59.958Z,15.13
2022-07-25T06:39:28.143Z,24.55
2022-07-25T06:41:55.016Z,17.58
2022-07-25T06:44:21.712Z,17.38
2022-07-25T06:46:48.427Z,17.27
2022-07-25T06:49:16.904Z,17.65
2022-07-25T06:51:44.035Z,18.63
2022-07-25T06:54:10.654Z,26.73
2022-07-25T06:56:37.272Z,17.05
2022-07-25T06:59:03.967Z,19.40
2022-07-25T07:01:30.817Z,18.40
2022-07-25T07:03:57.420Z,17.75
2022-07-25T07:06:24.157Z,21.55
2022-07-25T07:08:51.697Z,20.15
2022-07-25T07:11:18.397Z,14.88
2022-07-25T07:13:45.075Z,19.83
2022-07-25T07:16:11.835Z,16.15
2022-07-25T07:18:39.220Z,17.30
2022-07-25T07:21:06.814Z,17.10
2022-07-25T07:23:34.777Z,15.23
2022-07-25T07:26:03.537Z,14.93
2022-07-25T07:28:30.389Z,15.43
2022-07-25T07:33:43.827Z,17.33
2022-07-25T07:36:10.777Z,17.15
2022-07-25T07:38:37.376Z,27.65
2022-07-25T07:41:04.012Z,19.67
2022-07-25T07:43:32.020Z,23.40
2022-07-25T07:46:01.417Z,20.33
2022-07-25T07:48:31.610Z,17.58
2022-07-25T07:51:01.152Z,16.38
2022-07-25T07:53:46.904Z,19.65
2022-07-25T07:56:14.635Z,16.95
2022-07-25T07:58:41.282Z,20.35
2022-07-25T08:01:08.015Z,18.17
2022-07-25T08:03:34.682Z,18.98
2022-07-25T08:06:01.432Z,17.98
2022-07-25T08:08:31.400Z,16.55
2022-07-25T08:10:59.543Z,17.77
2022-07-25T08:13:30.561Z,21.55
2022-07-25T08:18:26.883Z,19.83
2022-07-25T08:20:53.659Z,17.75
2022-07-25T08:23:20.675Z,20.88
2022-07-25T08:25:47.439Z,19.35
2022-07-25T08:28:14.863Z,18.15
2022-07-25T08:30:42.135Z,27.27
2022-07-25T08:33:12.535Z,19.85
2022-07-25T08:35:41.085Z,19.38
2022-07-25T08:38:07.917Z,16.50
2022-07-25T08:40:35.268Z,18.83
2022-07-25T08:43:01.913Z,17.00
2022-07-25T08:45:28.841Z,18.52
2022-07-25T08:47:56.611Z,18.73
2022-07-25T08:50:27.215Z,18.52
2022-07-25T08:53:04.911Z,17.08
2022-07-25T08:55:43.618Z,15.73
2022-07-25T08:58:11.413Z,18.20
2022-07-25T09:00:38.944Z,15.95
2022-07-25T09:03:08.499Z,20.10
2022-07-25T09:05:36.828Z,15.27
2022-07-25T09:08:08.398Z,22.23
2022-07-25T09:10:36.081Z,16.42
2022-07-25T09:13:10.967Z,26.48
2022-07-25T09:15:40.458Z,18.23
2022-07-25T09:18:16.881Z,17.38
2022-07-25T09:20:48.117Z,16.70
2022-07-25T09:23:27.298Z,18.95
2022-07-25T09:26:10.928Z,18.75
2022-07-25T09:28:45.953Z,15.95
2022-07-25T09:31:14.439Z,20.08
2022-07-25T09:33:57.055Z,18.40
2022-07-25T09:36:24.152Z,17.80
2022-07-25T09:39:01.143Z,19.65
2022-07-25T09:41:35.161Z,17.05
2022-07-25T09:44:02.121Z,13.73
2022-07-25T09:46:32.979Z,22.42
2022-07-25T09:49:00.780Z,14.98
2022-07-25T09:51:29.106Z,21.60
2022-07-25T09:53:55.920Z,14.70
2022-07-25T09:56:22.680Z,18.85
2022-07-25T09:58:49.256Z,18.95
2022-07-25T10:01:22.946Z,18.73
2022-07-25T10:04:15.080Z,18.90
2022-07-25T10:06:52.621Z,15.68
2022-07-25T10:09:19.323Z,15.63
2022-07-25T10:12:06.868Z,14.85
2022-07-25T10:14:34.722Z,17.38
2022-07-25T10:17:02.128Z,15.07
2022-07-25T10:19:52.895Z,15.55
2022-07-25T10:22:39.734Z,16.13
2022-07-25T10:25:19.329Z,12.85
2022-07-25T10:27:52.941Z,14.73
2022-07-25T10:30:24.919Z,13.77
2022-07-25T10:33:02.343Z,17.85
2022-07-25T10:35:29.502Z,12.10
2022-07-25T10:37:58.288Z,12.80
2022-07-25T10:40:27.930Z,17.15
2022-07-25T10:43:22.123Z,14.10
2022-07-25T10:45:50.945Z,12.90
2022-07-25T10:48:32.763Z,11.85
2022-07-25T10:51:25.343Z,12.45
2022-07-25T10:53:52.161Z,20.13
2022-07-25T10:56:22.924Z,12.32
2022-07-25T10:58:51.525Z,14.65
2022-07-25T11:01:26.678Z,19.85
2022-07-25T11:03:56.513Z,15.15
2022-07-25T11:06:40.476Z,17.25
2022-07-25T11:09:18.500Z,11.80
2022-07-25T11:11:50.049Z,13.75
2022-07-25T11:14:22.427Z,12.73
2022-07-25T11:16:51.876Z,14.07
2022-07-25T11:19:22.950Z,13.35
2022-07-25T11:22:00.508Z,13.52
2022-07-25T11:24:43.075Z,16.83
2022-07-25T11:27:20.493Z,13.90
2022-07-25T11:29:47.073Z,16.40
2022-07-25T11:32:14.119Z,15.23
2022-07-25T11:34:53.333Z,14.30
2022-07-25T11:37:21.093Z,16.05
2022-07-25T11:39:48.293Z,17.27
2022-07-25T11:42:19.532Z,17.48
2022-07-25T11:44:52.880Z,14.57
2022-07-25T11:47:24.315Z,15.75
2022-07-25T11:49:52.445Z,13.27
2022-07-25T11:52:33.984Z,17.35
2022-07-25T11:55:02.674Z,12.10
2022-07-25T11:57:32.250Z,13.73
2022-07-25T12:00:00.463Z,13.73
2022-07-25T12:02:37.264Z,15.88
2022-07-25T12:05:10.296Z,13.25
2022-07-25T12:07:45.071Z,15.50
2022-07-25T12:10:23.384Z,16.75
2022-07-25T12:12:56.005Z,16.30
2022-07-25T12:15:28.945Z,11.95
2022-07-25T12:17:57.304Z,13.85
2022-07-25T12:20:26.643Z,13.90
2022-07-25T12:22:55.877Z,20.50
2022-07-25T12:25:28.908Z,55.53
2022-07-25T12:27:58.907Z,11.43
2022-07-25T12:30:27.494Z,13.95
2022-07-25T12:32:55.105Z,13.93
2022-07-25T12:35:24.815Z,14.13
2022-07-25T12:37:52.119Z,18.48
2022-07-25T12:40:19.933Z,11.38
2022-07-25T12:42:48.837Z,12.13
2022-07-25T12:45:17.849Z,15.45
2022-07-25T12:47:46.440Z,12.27
2022-07-25T12:50:13.832Z,14.73
2022-07-25T12:52:41.642Z,17.92
2022-07-25T12:55:10.440Z,12.75
2022-07-25T12:57:37.353Z,15.43
2022-07-25T13:00:05.871Z,13.77
2022-07-25T13:02:32.710Z,12.68
2022-07-25T13:04:59.761Z,11.18
2022-07-25T13:07:26.743Z,13.82
2022-07-25T13:09:53.295Z,11.18
2022-07-25T13:12:20.745Z,11.90
2022-07-25T13:14:47.891Z,17.95
2022-07-25T13:17:14.494Z,16.55
2022-07-25T13:19:41.100Z,12.70
2022-07-25T13:22:07.827Z,18.38
2022-07-25T13:24:34.667Z,14.80
2022-07-25T13:27:07.815Z,14.93
2022-07-25T13:29:34.551Z,12.02
2022-07-25T13:32:01.608Z,17.02
2022-07-25T13:34:28.577Z,13.02
2022-07-25T13:36:55.168Z,13.65
2022-07-25T13:39:22.536Z,10.88
2022-07-25T13:41:49.738Z,18.45
2022-07-25T13:44:16.822Z,15.48
2022-07-25T13:46:46.211Z,13.10
2022-07-25T13:49:13.253Z,14.27
2022-07-25T13:51:39.935Z,14.95
2022-07-25T13:54:07.174Z,15.82
2022-07-25T13:56:34.308Z,10.60
2022-07-25T13:59:03.541Z,13.30
2022-07-25T14:01:30.569Z,13.67
2022-07-25T14:03:57.290Z,15.43
2022-07-25T14:06:23.958Z,15.48
2022-07-25T14:08:50.582Z,11.20
2022-07-25T14:11:17.331Z,10.55
2022-07-25T14:13:45.318Z,21.23
2022-07-25T14:16:14.515Z,11.75
2022-07-25T14:18:41.160Z,16.00
2022-07-25T14:21:07.818Z,12.77
2022-07-25T14:23:34.586Z,17.30
2022-07-25T14:26:01.180Z,11.27
2022-07-25T14:28:27.905Z,11.98
2022-07-25T14:30:54.695Z,11.63
2022-07-25T14:33:21.434Z,12.98
2022-07-25T14:35:48.129Z,14.35
2022-07-25T14:38:14.829Z,10.68
2022-07-25T14:40:42.574Z,19.25
2022-07-25T14:43:09.163Z,14.50
2022-07-25T14:45:37.134Z,12.73
2022-07-25T14:48:06.972Z,16.67
2022-07-25T14:50:33.912Z,12.65
2022-07-25T14:53:00.588Z,10.77
2022-07-25T14:55:27.269Z,12.68
2022-07-25T14:57:53.911Z,10.80
2022-07-25T15:00:22.059Z,15.05
2022-07-25T15:02:51.608Z,10.23
2022-07-25T15:05:18.373Z,10.68
2022-07-25T15:07:45.111Z,21.10
2022-07-25T15:10:11.960Z,14.65
2022-07-25T15:12:38.772Z,14.82
2022-07-25T15:15:06.341Z,15.63
2022-07-25T15:17:33.747Z,12.80
2022-07-25T15:20:00.723Z,18.02
2022-07-25T15:22:27.318Z,19.52
2022-07-25T15:27:40.679Z,10.85
2022-07-25T15:30:07.791Z,12.45
2022-07-25T15:32:34.722Z,19.33
2022-07-25T15:35:01.470Z,15.05
2022-07-25T15:37:28.980Z,11.13
2022-07-25T15:39:56.008Z,10.68
2022-07-25T15:42:27.051Z,12.70
2022-07-25T15:45:15.254Z,14.85
2022-07-25T15:47:45.073Z,11.45
2022-07-25T15:50:14.464Z,13.68
2022-07-25T15:52:41.222Z,16.60
2022-07-25T15:55:08.052Z,15.35
2022-07-25T15:57:34.852Z,12.15
2022-07-25T16:00:01.422Z,12.23
2022-07-25T16:02:28.118Z,11.63
2022-07-25T16:04:54.658Z,13.57
2022-07-25T16:07:21.336Z,13.30
2022-07-25T16:09:48.079Z,14.23
2022-07-25T16:12:14.868Z,17.45
2022-07-25T16:14:41.622Z,16.55
2022-07-25T16:17:08.408Z,14.60
2022-07-25T16:19:35.127Z,14.80
2022-07-25T16:22:02.179Z,11.75
2022-07-25T16:24:28.748Z,13.27
2022-07-25T16:26:55.355Z,12.32
2022-07-25T16:29:22.212Z,12.57
2022-07-25T16:31:49.262Z,15.25
2022-07-25T16:34:15.911Z,16.58
2022-07-25T16:36:42.544Z,12.80
2022-07-25T16:39:13.375Z,12.07
2022-07-25T16:41:39.962Z,14.98
2022-07-25T16:44:07.064Z,19.17
2022-07-25T16:46:33.694Z,15.18
2022-07-25T16:49:00.397Z,17.60
2022-07-25T16:51:27.108Z,15.07
2022-07-25T16:53:53.954Z,13.32
2022-07-25T16:56:20.799Z,13.48
2022-07-25T16:58:47.614Z,14.90
2022-07-25T17:03:41.960Z,12.57
2022-07-25T17:06:09.471Z,14.20
2022-07-25T17:08:37.785Z,13.52
2022-07-25T17:11:05.457Z,15.50
2022-07-25T17:13:32.192Z,14.85
2022-07-25T17:15:58.911Z,11.43
2022-07-25T17:18:25.756Z,14.52
2022-07-25T17:20:54.537Z,13.23
2022-07-25T17:23:21.805Z,13.57
2022-07-25T17:25:50.658Z,15.60
2022-07-25T17:28:17.962Z,12.63
2022-07-25T17:30:45.688Z,13.35
2022-07-25T17:33:12.272Z,12.73
2022-07-25T17:35:42.311Z,15.20
2022-07-25T17:38:12.074Z,20.38
2022-07-25T17:40:45.164Z,12.60
2022-07-25T17:43:11.773Z,13.52
2022-07-25T17:45:38.619Z,11.30
2022-07-25T17:48:05.414Z,11.93
2022-07-25T17:50:32.253Z,13.50
2022-07-25T17:52:59.972Z,15.25
2022-07-25T17:55:28.137Z,14.80
2022-07-25T17:57:55.754Z,14.00
2022-07-25T18:00:23.352Z,14.20
2022-07-25T18:02:50.993Z,13.43
2022-07-25T18:05:18.128Z,12.82
2022-07-25T18:07:46.317Z,14.95
2022-07-25T18:10:20.206Z,19.75
2022-07-25T18:12:47.914Z,13.40
2022-07-25T18:15:14.997Z,14.30
2022-07-25T18:17:43.109Z,15.23
2022-07-25T18:20:10.576Z,13.60
2022-07-25T18:22:38.344Z,16.48
2022-07-25T18:25:06.515Z,14.15
2022-07-25T18:27:33.647Z,14.95
2022-07-25T18:30:00.403Z,12.85
2022-07-25T18:32:27.020Z,14.43
2022-07-25T18:34:53.836Z,14.73
2022-07-25T18:37:20.681Z,13.52
2022-07-25T18:39:47.421Z,13.27
2022-07-25T18:42:14.094Z,14.88
2022-07-25T18:44:40.631Z,11.98
2022-07-25T18:47:07.666Z,17.60
2022-07-25T18:49:34.315Z,13.27
2022-07-25T18:52:00.915Z,14.05
2022-07-25T18:54:27.909Z,13.40
2022-07-25T18:56:54.541Z,17.92
2022-07-25T18:59:21.261Z,14.50
2022-07-25T19:01:47.994Z,14.73
2022-07-25T19:04:15.353Z,13.38
2022-07-25T19:06:42.066Z,13.23
2022-07-25T19:09:09.070Z,12.23
2022-07-25T19:11:41.687Z,16.27
2022-07-25T19:14:09.372Z,13.70
2022-07-25T19:16:36.486Z,12.65
2022-07-25T19:19:03.563Z,13.93
2022-07-25T19:21:30.201Z,13.57
2022-07-25T19:23:56.896Z,13.80
2022-07-25T19:26:23.789Z,14.68
2022-07-25T19:28:51.146Z,14.73
2022-07-25T19:31:17.888Z,17.40
2022-07-25T19:33:45.992Z,15.40
2022-07-25T19:36:13.829Z,13.98
2022-07-25T19:38:40.413Z,16.00
2022-07-25T19:41:08.272Z,14.07
2022-07-25T19:43:35.593Z,19.80
2022-07-25T19:46:02.281Z,14.32
2022-07-25T19:48:28.973Z,19.25
2022-07-25T19:50:56.326Z,17.88
2022-07-25T19:53:28.091Z,15.93
2022-07-25T19:55:55.282Z,13.10
2022-07-25T19:58:21.887Z,13.82
2022-07-25T20:00:48.496Z,23.40
2022-07-25T20:03:15.685Z,16.08
2022-07-25T20:05:42.524Z,14.35
2022-07-25T20:08:09.127Z,14.52
2022-07-25T20:10:35.733Z,12.50
2022-07-25T20:13:02.399Z,16.92
2022-07-25T20:15:29.633Z,15.05
2022-07-25T20:17:56.978Z,11.10
2022-07-25T20:20:24.492Z,15.07
2022-07-25T20:22:51.540Z,12.77
2022-07-25T20:25:18.151Z,14.30
2022-07-25T20:27:45.038Z,12.05
2022-07-25T20:30:12.401Z,14.73
2022-07-25T20:32:39.083Z,12.77
2022-07-25T20:35:06.205Z,16.02
2022-07-25T20:37:32.961Z,14.52
2022-07-25T20:40:00.104Z,12.73
2022-07-25T20:42:27.379Z,18.20
2022-07-25T20:44:54.084Z,14.38
2022-07-25T20:47:20.843Z,16.65
2022-07-25T20:49:47.562Z,14.20
2022-07-25T20:52:14.170Z,13.05
2022-07-25T20:54:42.873Z,15.73
2022-07-25T20:57:11.552Z,12.20
2022-07-25T20:59:38.240Z,12.13
2022-07-25T21:02:04.932Z,17.88
2022-07-25T21:04:31.772Z,12.27
2022-07-25T21:06:58.434Z,14.90
2022-07-25T21:09:27.428Z,13.55
2022-07-25T21:11:57.723Z,17.95
2022-07-25T21:14:24.304Z,12.65
2022-07-25T21:16:50.989Z,12.43
2022-07-25T21:19:17.631Z,13.68
2022-07-25T21:21:44.807Z,12.27
2022-07-25T21:24:12.398Z,20.27
2022-07-25T21:26:39.506Z,12.75
2022-07-25T21:29:07.374Z,14.77
2022-07-25T21:31:34.683Z,15.68
2022-07-25T21:34:02.109Z,12.57
2022-07-25T21:36:30.137Z,24.52
2022-07-25T21:38:56.809Z,67.80
2022-07-25T21:41:23.553Z,90.03
2022-07-25T21:43:50.892Z,76.43
2022-07-25T21:46:17.649Z,80.03
2022-07-25T21:49:02.821Z,75.57
2022-07-25T21:51:40.208Z,56.90
2022-07-25T21:54:07.305Z,31.95
2022-07-25T21:56:33.926Z,32.28
2022-07-25T21:59:00.535Z,31.38
2022-07-25T22:01:27.122Z,30.63
2022-07-25T22:03:53.825Z,31.63
2022-07-25T22:06:20.780Z,31.00
2022-07-25T22:08:47.393Z,32.13
2022-07-25T22:11:16.086Z,25.88
2022-07-25T22:14:01.893Z,20.60
2022-07-25T22:16:28.572Z,27.38
2022-07-25T22:18:57.206Z,23.80
2022-07-25T22:21:23.987Z,30.17
2022-07-25T22:23:50.631Z,29.85
2022-07-25T22:26:17.352Z,22.25
2022-07-25T22:28:43.924Z,23.25
2022-07-25T22:31:10.606Z,13.10
2022-07-25T22:33:38.314Z,21.63
2022-07-25T22:36:05.739Z,24.05
2022-07-25T22:38:32.463Z,25.75
2022-07-25T22:40:59.016Z,23.67
2022-07-25T22:43:25.571Z,32.55
2022-07-25T22:46:12.684Z,18.48
2022-07-25T22:48:42.154Z,19.08
2022-07-25T22:51:08.743Z,21.80
2022-07-25T22:53:35.426Z,19.38
2022-07-25T22:56:02.076Z,20.63
2022-07-25T22:58:28.746Z,19.70
2022-07-25T23:00:55.491Z,25.00
2022-07-25T23:03:22.571Z,17.92
2022-07-25T23:05:49.357Z,16.17
2022-07-25T23:08:20.508Z,13.05
2022-07-25T23:10:47.243Z,17.05
2022-07-25T23:13:13.833Z,17.45
2022-07-25T23:15:51.041Z,25.27
2022-07-25T23:18:18.741Z,14.88
2022-07-25T23:20:45.394Z,18.77
2022-07-25T23:23:12.591Z,17.35
2022-07-25T23:25:39.246Z,21.85
2022-07-25T23:28:06.010Z,15.52
2022-07-25T23:30:38.043Z,13.48
2022-07-25T23:33:06.497Z,18.00
2022-07-25T23:35:33.148Z,17.42
2022-07-25T23:37:59.817Z,14.75
2022-07-25T23:40:26.974Z,17.30
2022-07-25T23:42:54.500Z,13.45
2022-07-25T23:45:22.012Z,13.98
2022-07-25T23:47:52.118Z,13.90
2022-07-25T23:50:19.850Z,16.42
2022-07-25T23:52:46.785Z,26.02
2022-07-25T23:55:13.482Z,12.52
2022-07-25T23:57:40.082Z,19.63
